createdAt,value
2023-12-31T00:02:22.120Z,8.53
2023-12-31T00:05:25.151Z,9.73
2023-12-31T00:08:28.375Z,9.23
2023-12-31T00:11:31.382Z,8.27
2023-12-31T00:14:35.790Z,7.33
2023-12-31T00:17:38.996Z,8.00
2023-12-31T00:20:42.098Z,6.83
2023-12-31T00:23:45.831Z,7.37
2023-12-31T00:26:49.426Z,8.63
2023-12-31T00:29:53.807Z,6.93
2023-12-31T00:32:56.971Z,6.87
2023-12-31T00:36:00.113Z,6.30
2023-12-31T00:39:03.340Z,5.87
2023-12-31T00:42:07.675Z,5.77
2023-12-31T00:45:12.255Z,5.63
2023-12-31T00:48:15.416Z,5.20
2023-12-31T00:51:18.451Z,6.00
2023-12-31T00:54:21.577Z,6.00
2023-12-31T00:57:24.572Z,6.23
2023-12-31T01:00:29.135Z,5.33
2023-12-31T01:03:34.323Z,5.67
2023-12-31T01:06:38.421Z,5.70
2023-12-31T01:09:41.568Z,7.47
2023-12-31T01:12:44.620Z,6.70
2023-12-31T01:15:49.220Z,7.37
2023-12-31T01:18:52.229Z,7.60
2023-12-31T01:21:56.381Z,6.30
2023-12-31T01:24:59.419Z,6.00
2023-12-31T01:28:03.892Z,6.03
2023-12-31T01:31:08.279Z,6.40
2023-12-31T01:34:11.614Z,7.80
2023-12-31T01:37:16.208Z,6.47
2023-12-31T01:40:19.517Z,8.07
2023-12-31T01:43:23.218Z,6.20
2023-12-31T01:46:31.007Z,8.27
2023-12-31T01:49:35.101Z,7.97
2023-12-31T01:52:38.925Z,6.43
2023-12-31T01:55:42.430Z,7.63
2023-12-31T01:58:46.510Z,10.53
2023-12-31T02:01:56.660Z,8.07
2023-12-31T02:05:01.102Z,8.77
2023-12-31T02:08:05.540Z,8.57
2023-12-31T02:11:11.510Z,10.80
2023-12-31T02:14:14.537Z,7.70
2023-12-31T02:17:18.996Z,9.77
2023-12-31T02:20:23.251Z,8.40
2023-12-31T02:23:26.924Z,8.43
2023-12-31T02:26:32.052Z,6.73
2023-12-31T02:29:35.093Z,7.73
2023-12-31T02:32:38.144Z,6.47
2023-12-31T02:35:42.206Z,8.07
2023-12-31T02:38:45.237Z,8.67
2023-12-31T02:41:49.584Z,8.50
2023-12-31T02:44:52.735Z,9.03
2023-12-31T02:47:55.991Z,10.17
2023-12-31T02:50:59.041Z,9.37
2023-12-31T02:54:02.150Z,8.97
2023-12-31T02:57:08.204Z,8.50
2023-12-31T03:00:12.856Z,9.50
2023-12-31T03:03:16.568Z,9.23
2023-12-31T03:06:20.008Z,8.13
2023-12-31T03:09:23.343Z,8.47
2023-12-31T03:12:28.919Z,8.87
2023-12-31T03:15:31.927Z,8.60
2023-12-31T03:18:35.835Z,8.80
2023-12-31T03:21:38.975Z,8.00
2023-12-31T03:24:45.217Z,9.03
2023-12-31T03:27:49.503Z,8.43
2023-12-31T03:30:52.577Z,9.43
2023-12-31T03:33:55.790Z,9.23
2023-12-31T03:36:58.830Z,9.03
2023-12-31T03:40:02.049Z,9.70
2023-12-31T03:43:07.820Z,8.90
2023-12-31T03:46:10.916Z,9.63
2023-12-31T03:49:15.241Z,8.43
2023-12-31T03:52:18.396Z,9.60
2023-12-31T03:55:21.929Z,7.60
2023-12-31T03:58:27.169Z,7.67
2023-12-31T04:01:30.730Z,9.03
2023-12-31T04:04:33.881Z,7.27
2023-12-31T04:07:37.383Z,7.77
2023-12-31T04:10:40.531Z,7.80
2023-12-31T04:13:45.125Z,8.93
2023-12-31T04:16:48.190Z,7.57
2023-12-31T04:19:51.395Z,7.43
2023-12-31T04:22:54.525Z,8.67
2023-12-31T04:25:57.954Z,9.27
2023-12-31T04:29:02.320Z,7.13
2023-12-31T04:32:06.269Z,7.97
2023-12-31T04:35:10.088Z,7.40
2023-12-31T04:38:13.098Z,6.40
2023-12-31T04:41:23.702Z,6.30
2023-12-31T04:44:28.106Z,6.80
2023-12-31T04:47:31.573Z,6.50
2023-12-31T04:50:34.703Z,6.50
2023-12-31T04:53:39.012Z,6.90
2023-12-31T04:56:42.356Z,6.30
2023-12-31T04:59:47.359Z,7.23
2023-12-31T05:02:50.421Z,7.30
2023-12-31T05:05:53.413Z,7.10
2023-12-31T05:08:56.503Z,6.33
2023-12-31T05:11:59.522Z,6.83
2023-12-31T05:15:03.893Z,7.90
2023-12-31T05:18:08.015Z,7.17
2023-12-31T05:21:11.358Z,6.83
2023-12-31T05:24:14.764Z,6.50
2023-12-31T05:27:19.005Z,7.10
2023-12-31T05:30:23.738Z,8.17
2023-12-31T05:33:26.873Z,7.03
2023-12-31T05:36:29.880Z,7.00
2023-12-31T05:39:32.897Z,6.50
2023-12-31T05:42:35.860Z,6.47
2023-12-31T05:45:40.270Z,6.70
2023-12-31T05:48:43.472Z,6.37
2023-12-31T05:51:46.568Z,7.30
2023-12-31T05:54:50.583Z,7.17
2023-12-31T05:57:53.695Z,7.23
2023-12-31T06:00:59.582Z,7.30
2023-12-31T06:04:02.679Z,8.13
2023-12-31T06:07:07.825Z,6.93
2023-12-31T06:10:11.494Z,6.23
2023-12-31T06:13:15.010Z,5.77
2023-12-31T06:16:19.442Z,5.60
2023-12-31T06:19:22.545Z,6.00
2023-12-31T06:22:27.963Z,6.27
2023-12-31T06:25:31.081Z,6.70
2023-12-31T06:28:35.021Z,5.87
2023-12-31T06:31:39.461Z,6.50
2023-12-31T06:34:42.617Z,5.47
2023-12-31T06:37:45.725Z,7.10
2023-12-31T06:40:48.855Z,7.33
2023-12-31T06:43:51.983Z,6.07
2023-12-31T06:46:56.401Z,6.77
2023-12-31T06:49:59.871Z,5.93
2023-12-31T06:53:03.434Z,7.43
2023-12-31T06:56:07.616Z,6.10
2023-12-31T06:59:10.567Z,5.80
2023-12-31T07:02:15.087Z,5.80
2023-12-31T07:05:18.127Z,4.80
2023-12-31T07:08:21.896Z,5.37
2023-12-31T07:11:25.118Z,5.00
2023-12-31T07:14:28.132Z,5.20
2023-12-31T07:17:32.493Z,5.23
2023-12-31T07:20:35.592Z,4.83
2023-12-31T07:23:41.475Z,4.90
2023-12-31T07:26:44.526Z,5.57
2023-12-31T07:29:47.730Z,4.50
2023-12-31T07:32:52.451Z,4.83
2023-12-31T07:35:55.686Z,5.10
2023-12-31T07:38:58.700Z,5.50
2023-12-31T07:42:01.687Z,4.77
2023-12-31T07:45:09.460Z,4.30
2023-12-31T07:48:14.234Z,6.27
2023-12-31T07:51:17.472Z,5.60
2023-12-31T07:54:20.439Z,5.87
2023-12-31T07:57:25.841Z,6.83
2023-12-31T08:00:28.905Z,6.23
2023-12-31T08:03:33.408Z,5.50
2023-12-31T08:06:37.644Z,6.70
2023-12-31T08:09:41.789Z,6.10
2023-12-31T08:12:51.214Z,5.87
2023-12-31T08:15:55.446Z,6.27
2023-12-31T08:19:02.097Z,5.73
2023-12-31T08:22:05.504Z,4.57
2023-12-31T08:25:09.244Z,4.57
2023-12-31T08:28:12.357Z,5.50
2023-12-31T08:31:16.365Z,5.27
2023-12-31T08:34:20.897Z,5.50
2023-12-31T08:37:24.498Z,5.17
2023-12-31T08:40:27.881Z,5.43
2023-12-31T08:43:30.932Z,5.50
2023-12-31T08:46:34.167Z,6.03
2023-12-31T08:49:39.849Z,4.97
2023-12-31T08:52:48.266Z,5.60
2023-12-31T08:55:52.784Z,6.23
2023-12-31T08:58:55.953Z,4.63
2023-12-31T09:01:59.097Z,4.50
2023-12-31T09:05:05.813Z,4.40
2023-12-31T09:08:08.918Z,5.53
2023-12-31T09:11:11.932Z,5.13
2023-12-31T09:14:14.974Z,5.97
2023-12-31T09:17:18.229Z,5.60
2023-12-31T09:20:27.557Z,6.73
2023-12-31T09:23:32.813Z,6.47
2023-12-31T09:26:35.864Z,5.83
2023-12-31T09:29:39.265Z,5.27
2023-12-31T09:32:44.077Z,6.80
2023-12-31T09:35:48.564Z,5.63
2023-12-31T09:38:51.929Z,5.13
2023-12-31T09:41:55.822Z,4.60
2023-12-31T09:45:00.565Z,4.73
2023-12-31T09:48:04.457Z,4.67
2023-12-31T09:51:09.237Z,4.70
2023-12-31T09:54:13.321Z,4.60
2023-12-31T09:57:21.200Z,4.27
2023-12-31T10:00:25.799Z,5.40
2023-12-31T10:03:32.113Z,4.83
2023-12-31T10:06:37.099Z,5.23
2023-12-31T10:09:41.925Z,4.73
2023-12-31T10:12:49.332Z,5.20
2023-12-31T10:15:57.720Z,5.53
2023-12-31T10:19:01.373Z,6.33
2023-12-31T10:22:09.985Z,5.07
2023-12-31T10:25:18.041Z,5.20
2023-12-31T10:28:23.859Z,5.37
2023-12-31T10:31:27.590Z,6.17
2023-12-31T10:34:30.695Z,4.37
2023-12-31T10:37:37.428Z,5.03
2023-12-31T10:40:42.149Z,5.83
2023-12-31T10:43:49.846Z,5.10
2023-12-31T10:46:54.810Z,5.47
2023-12-31T10:49:59.603Z,5.30
2023-12-31T10:53:08.903Z,5.67
2023-12-31T10:56:14.099Z,5.30
2023-12-31T10:59:18.783Z,4.97
2023-12-31T11:02:23.996Z,5.47
2023-12-31T11:05:31.693Z,4.30
2023-12-31T11:08:38.309Z,4.63
2023-12-31T11:11:41.325Z,4.47
2023-12-31T11:14:57.112Z,4.70
2023-12-31T11:18:34.734Z,4.70
2023-12-31T11:21:58.574Z,4.63
2023-12-31T11:25:04.744Z,5.17
2023-12-31T11:28:08.723Z,4.23
2023-12-31T11:31:12.184Z,5.07
2023-12-31T11:34:15.422Z,4.33
2023-12-31T11:37:18.703Z,4.87
2023-12-31T11:40:23.695Z,4.40
2023-12-31T11:43:36.822Z,5.30
2023-12-31T11:46:41.704Z,3.73
2023-12-31T11:49:48.377Z,4.43
2023-12-31T11:52:51.955Z,5.13
2023-12-31T11:56:00.738Z,5.00
2023-12-31T11:59:04.667Z,6.07
2023-12-31T12:02:09.146Z,4.40
2023-12-31T12:05:12.629Z,5.07
2023-12-31T12:08:17.304Z,5.87
2023-12-31T12:11:25.528Z,5.30
2023-12-31T12:14:28.808Z,4.37
2023-12-31T12:17:32.200Z,5.47
2023-12-31T12:20:38.079Z,5.27
2023-12-31T12:23:41.569Z,5.50
2023-12-31T12:26:48.246Z,6.30
2023-12-31T12:29:51.567Z,6.80
2023-12-31T12:32:55.654Z,7.40
2023-12-31T12:35:59.319Z,6.00
2023-12-31T12:39:03.957Z,7.27
2023-12-31T12:42:10.068Z,7.83
2023-12-31T12:45:13.137Z,9.70
2023-12-31T12:48:18.272Z,6.20
2023-12-31T12:51:21.679Z,6.77
2023-12-31T12:54:26.421Z,6.63
2023-12-31T12:57:31.024Z,5.70
2023-12-31T13:00:36.515Z,5.73
2023-12-31T13:03:59.643Z,6.30
2023-12-31T13:07:02.873Z,5.57
2023-12-31T13:10:07.015Z,5.83
2023-12-31T13:13:11.803Z,5.63
2023-12-31T13:16:22.002Z,5.53
2023-12-31T13:19:27.320Z,5.00
2023-12-31T13:22:32.854Z,6.70
2023-12-31T13:25:38.667Z,7.63
2023-12-31T13:28:43.595Z,4.27
2023-12-31T13:31:47.342Z,6.97
2023-12-31T13:34:50.567Z,6.27
2023-12-31T13:37:54.784Z,5.07
2023-12-31T13:40:58.263Z,8.00
2023-12-31T13:44:02.750Z,5.60
2023-12-31T13:47:06.183Z,11.23
2023-12-31T13:50:10.038Z,6.63
2023-12-31T13:53:14.918Z,8.43
2023-12-31T13:56:18.303Z,9.77
2023-12-31T13:59:22.626Z,5.17
2023-12-31T14:02:26.259Z,5.00
2023-12-31T14:05:29.419Z,6.93
2023-12-31T14:08:32.501Z,8.00
2023-12-31T14:11:35.503Z,6.53
2023-12-31T14:14:39.800Z,9.33
2023-12-31T14:17:42.840Z,5.90
2023-12-31T14:20:45.973Z,7.00
2023-12-31T14:23:50.156Z,6.03
2023-12-31T14:26:53.714Z,5.07
2023-12-31T14:29:58.042Z,7.70
2023-12-31T14:33:01.306Z,6.67
2023-12-31T14:36:21.637Z,6.53
2023-12-31T14:39:24.648Z,4.77
2023-12-31T14:42:27.745Z,5.30
2023-12-31T14:45:32.062Z,5.50
2023-12-31T14:48:36.410Z,6.50
2023-12-31T14:51:40.089Z,5.83
2023-12-31T14:54:43.190Z,6.27
2023-12-31T14:57:46.458Z,6.57
2023-12-31T15:00:54.904Z,6.00
2023-12-31T15:03:58.632Z,6.60
2023-12-31T15:07:03.742Z,6.40
2023-12-31T15:10:09.295Z,5.37
2023-12-31T15:13:15.397Z,8.00
2023-12-31T15:16:20.177Z,6.53
2023-12-31T15:19:24.093Z,6.43
2023-12-31T15:22:29.508Z,6.57
2023-12-31T15:25:52.215Z,8.00
2023-12-31T15:29:05.017Z,7.37
2023-12-31T15:32:13.942Z,6.00
2023-12-31T15:35:17.232Z,8.97
2023-12-31T15:38:23.322Z,5.73
2023-12-31T15:41:28.135Z,8.37
2023-12-31T15:44:31.222Z,7.60
2023-12-31T15:47:40.044Z,7.93
2023-12-31T15:50:43.310Z,9.40
2023-12-31T15:53:46.356Z,9.90
2023-12-31T15:56:49.886Z,8.67
2023-12-31T16:00:03.481Z,12.60
2023-12-31T16:03:17.217Z,9.80
2023-12-31T16:06:20.370Z,15.13
2023-12-31T16:09:23.454Z,8.27
2023-12-31T16:12:26.766Z,7.40
2023-12-31T16:15:29.749Z,7.43
2023-12-31T16:18:34.144Z,8.10
2023-12-31T16:21:38.525Z,6.77
2023-12-31T16:24:41.666Z,9.20
2023-12-31T16:27:44.969Z,7.43
2023-12-31T16:30:48.114Z,9.43
2023-12-31T16:33:52.628Z,8.83
2023-12-31T16:36:55.666Z,9.97
2023-12-31T16:39:58.657Z,12.13
2023-12-31T16:43:05.521Z,9.70
2023-12-31T16:46:08.733Z,15.97
2023-12-31T16:49:16.229Z,13.10
2023-12-31T16:52:20.651Z,17.43
2023-12-31T16:55:23.734Z,15.63
2023-12-31T16:58:26.904Z,9.83
2023-12-31T17:01:30.818Z,10.77
2023-12-31T17:04:35.470Z,10.90
2023-12-31T17:07:38.570Z,9.33
2023-12-31T17:10:41.592Z,8.90
2023-12-31T17:13:45.134Z,9.10
2023-12-31T17:16:48.546Z,9.77
2023-12-31T17:19:52.995Z,11.00
2023-12-31T17:22:57.621Z,11.50
2023-12-31T17:26:00.794Z,11.47
2023-12-31T17:29:05.693Z,17.20
2023-12-31T17:32:09.756Z,18.03
2023-12-31T17:35:14.338Z,44.23
2023-12-31T17:38:19.331Z,33.70
2023-12-31T17:41:22.334Z,14.37
2023-12-31T17:44:25.851Z,14.67
2023-12-31T17:47:28.912Z,15.03
2023-12-31T17:50:33.267Z,14.40
2023-12-31T17:53:36.249Z,11.60
2023-12-31T17:56:40.907Z,11.77
2023-12-31T17:59:44.097Z,39.33
2023-12-31T18:02:47.062Z,13.57
2023-12-31T18:05:51.574Z,17.00
2023-12-31T18:08:54.644Z,17.27
2023-12-31T18:11:58.666Z,15.93
2023-12-31T18:15:02.018Z,25.33
2023-12-31T18:18:05.944Z,16.67
2023-12-31T18:21:10.402Z,15.87
2023-12-31T18:24:15.225Z,14.90
2023-12-31T18:27:19.602Z,17.40
2023-12-31T18:30:26.607Z,12.47
2023-12-31T18:33:35.043Z,17.73
2023-12-31T18:36:42.428Z,13.70
2023-12-31T18:39:45.476Z,13.90
2023-12-31T18:42:48.528Z,15.20
2023-12-31T18:45:51.536Z,20.17
2023-12-31T18:48:54.681Z,14.63
2023-12-31T18:51:59.352Z,14.03
2023-12-31T18:55:04.368Z,16.40
2023-12-31T18:58:07.719Z,12.57
2023-12-31T19:01:10.934Z,13.13
2023-12-31T19:04:16.845Z,13.33
2023-12-31T19:07:21.256Z,17.60
2023-12-31T19:10:24.763Z,35.83
2023-12-31T19:13:27.759Z,29.20
2023-12-31T19:16:31.089Z,18.83
2023-12-31T19:19:35.969Z,18.00
2023-12-31T19:22:40.983Z,21.33
2023-12-31T19:25:44.245Z,22.57
2023-12-31T19:28:50.419Z,40.20
2023-12-31T19:31:53.498Z,23.57
2023-12-31T19:34:56.863Z,20.57
2023-12-31T19:38:01.303Z,25.77
2023-12-31T19:41:04.460Z,20.23
2023-12-31T19:44:23.009Z,32.63
2023-12-31T19:47:30.507Z,18.93
2023-12-31T19:50:34.079Z,22.17
2023-12-31T19:53:38.577Z,20.00
2023-12-31T19:56:41.658Z,21.83
2023-12-31T19:59:44.702Z,35.60
2023-12-31T20:02:47.714Z,47.53
2023-12-31T20:05:50.838Z,24.00
2023-12-31T20:08:55.256Z,27.43
2023-12-31T20:11:58.313Z,30.03
2023-12-31T20:15:01.392Z,29.60
2023-12-31T20:18:04.777Z,28.57
2023-12-31T20:21:10.317Z,33.10
2023-12-31T20:24:16.494Z,32.83
2023-12-31T20:27:21.955Z,36.33
2023-12-31T20:30:25.027Z,33.33
2023-12-31T20:33:28.406Z,30.87
2023-12-31T20:36:32.756Z,30.73
2023-12-31T20:39:37.089Z,41.83
2023-12-31T20:42:59.201Z,42.63
2023-12-31T20:51:20.287Z,53.60
2023-12-31T20:54:36.954Z,60.40
2023-12-31T20:57:41.413Z,35.00
2023-12-31T21:00:44.779Z,29.80
2023-12-31T21:03:47.844Z,26.57
2023-12-31T21:06:50.848Z,29.30
2023-12-31T21:09:53.869Z,28.10
2023-12-31T21:12:58.303Z,30.67
2023-12-31T21:16:03.594Z,24.93
2023-12-31T21:19:08.961Z,27.60
2023-12-31T21:22:12.013Z,23.07
2023-12-31T21:25:15.023Z,24.50
2023-12-31T21:28:20.102Z,26.00
2023-12-31T21:31:24.106Z,24.10
2023-12-31T21:34:30.555Z,27.53
2023-12-31T21:37:34.507Z,28.73
2023-12-31T21:40:37.531Z,24.33
2023-12-31T21:43:42.215Z,27.40
2023-12-31T21:46:46.052Z,23.67
2023-12-31T21:49:51.814Z,24.93
2023-12-31T21:52:56.804Z,29.07
2023-12-31T21:56:14.271Z,30.07
2023-12-31T21:59:24.042Z,42.47
2023-12-31T22:02:27.066Z,34.03
2023-12-31T22:05:32.015Z,34.17
2023-12-31T22:08:35.044Z,35.43
2023-12-31T22:11:38.286Z,48.93
2023-12-31T22:14:42.643Z,26.30
2023-12-31T22:17:45.694Z,44.23
2023-12-31T22:20:49.119Z,58.70
2023-12-31T22:23:52.854Z,22.93
2023-12-31T22:26:55.906Z,42.20
2023-12-31T22:30:00.662Z,25.10
2023-12-31T22:33:03.820Z,68.93
2023-12-31T22:36:07.939Z,29.53
2023-12-31T22:39:11.012Z,24.00
2023-12-31T22:42:14.032Z,27.37
2023-12-31T22:45:20.637Z,35.57
2023-12-31T22:48:24.030Z,36.53
2023-12-31T22:51:27.095Z,48.93
2023-12-31T22:54:32.996Z,60.00
2023-12-31T22:57:36.047Z,71.43
2023-12-31T23:00:40.567Z,160.70
2023-12-31T23:03:43.818Z,85.30
2023-12-31T23:06:55.644Z,110.07
2023-12-31T23:09:58.818Z,117.37
2023-12-31T23:13:01.853Z,104.43
2023-12-31T23:16:08.477Z,112.93
2023-12-31T23:19:14.709Z,122.47
2023-12-31T23:22:17.817Z,158.90
2023-12-31T23:25:20.956Z,155.37
2023-12-31T23:28:24.286Z,148.80
2023-12-31T23:31:34.881Z,154.13
2023-12-31T23:34:38.050Z,168.50
2023-12-31T23:37:41.404Z,176.27
2023-12-31T23:40:44.482Z,197.10
2023-12-31T23:43:55.974Z,191.13
2023-12-31T23:47:07.277Z,217.60
2023-12-31T23:50:13.510Z,252.83
2023-12-31T23:53:16.713Z,269.03
2023-12-31T23:56:19.756Z,265.67
2023-12-31T23:59:22.760Z,237.83
